Time;durP1;ratioP1;P1;durP2;ratioP2;P2;SDS_P1;SDS_P2;PMS_P1;PMS_P2;Temp;Humidity;BMP_temperature;BMP_pressure;BME280_temperature;BME280_humidity;BME280_pressure;Samples;Min_cycle;Max_cycle;Signal;HPM_P1;HPM_P2
2022/08/25 00:03:31;;;;;;;0.20;0.00;;;26.80;99.90;;;;;;26168930;22;20159;-69
2022/08/25 00:13:46;;;;;;;0.20;0.00;;;26.80;99.90;;;;;;26165716;22;20206;-70
2022/08/25 00:23:50;;;;;;;0.20;0.10;;;26.80;99.90;;;;;;26139727;22;20160;-69
2022/08/25 00:33:55;;;;;;;0.20;0.00;;;27.00;99.90;;;;;;26139603;22;20224;-68
2022/08/25 00:44:00;;;;;;;0.20;0.00;;;27.00;99.90;;;;;;26175388;22;20168;-71
2022/08/25 00:54:07;;;;;;;0.20;0.00;;;26.70;99.90;;;;;;26175855;22;20206;-69
2022/08/25 01:04:11;;;;;;;0.20;0.00;;;26.80;99.90;;;;;;26173816;22;20184;-68
2022/08/25 01:14:19;;;;;;;0.20;0.00;;;26.50;99.90;;;;;;26175334;22;20202;-67
2022/08/25 01:24:34;;;;;;;0.20;0.10;;;26.60;99.90;;;;;;26145140;22;20175;-68
2022/08/25 01:34:40;;;;;;;0.20;0.00;;;26.50;99.90;;;;;;26172635;22;20191;-68
2022/08/25 01:44:47;;;;;;;0.20;0.00;;;26.50;99.90;;;;;;26174526;22;20171;-69
2022/08/25 01:54:51;;;;;;;0.20;0.00;;;26.30;99.90;;;;;;26172481;22;20229;-70
2022/08/25 02:04:56;;;;;;;0.20;0.00;;;26.40;99.90;;;;;;26171722;22;20187;-70
2022/08/25 02:15:00;;;;;;;0.20;0.00;;;26.40;99.90;;;;;;26142606;22;20198;-69
2022/08/25 02:25:06;;;;;;;0.20;0.00;;;26.50;99.90;;;;;;26172754;22;20223;-69
2022/08/25 02:35:10;;;;;;;0.20;0.00;;;26.00;99.90;;;;;;26172931;22;20183;-70
2022/08/25 02:45:17;;;;;;;0.20;0.00;;;25.70;99.90;;;;;;26171123;22;20178;-70
2022/08/25 02:55:22;;;;;;;0.20;0.00;;;25.40;99.90;;;;;;26146315;22;20199;-68
2022/08/25 03:05:27;;;;;;;0.20;0.00;;;25.80;99.90;;;;;;26170026;22;20187;-69
2022/08/25 03:15:32;;;;;;;0.20;0.00;;;25.80;99.90;;;;;;26145985;22;20186;-71
2022/08/25 03:36:04;;;;;;;0.20;0.00;;;25.60;99.90;;;;;;26140164;22;20250;-70
2022/08/25 03:46:09;;;;;;;0.20;0.00;;;25.70;99.90;;;;;;26169112;22;20174;-70
2022/08/25 03:56:13;;;;;;;0.20;0.00;;;25.70;99.90;;;;;;26169555;22;20207;-71
2022/08/25 04:06:19;;;;;;;0.20;0.10;;;25.90;99.90;;;;;;26167474;22;20187;-70
2022/08/25 04:16:26;;;;;;;0.20;0.00;;;25.80;99.90;;;;;;26176100;22;20179;-70
2022/08/25 04:26:34;;;;;;;0.20;0.10;;;25.70;99.90;;;;;;26148718;22;20190;-69
2022/08/25 04:36:38;;;;;;;0.20;0.10;;;25.70;99.90;;;;;;26176571;22;20197;-68
2022/08/25 04:46:43;;;;;;;0.20;0.00;;;25.80;99.90;;;;;;26176157;22;20163;-70
2022/08/25 04:56:48;;;;;;;0.20;0.00;;;25.60;99.90;;;;;;26175013;22;20202;-68
2022/08/25 05:06:53;;;;;;;0.20;0.00;;;25.50;99.90;;;;;;26147317;22;20255;-69
2022/08/25 05:16:57;;;;;;;0.20;0.00;;;25.30;99.90;;;;;;26145309;22;20171;-69
2022/08/25 05:27:03;;;;;;;0.20;0.00;;;25.40;99.90;;;;;;26174067;22;20171;-67
2022/08/25 05:37:07;;;;;;;0.20;0.00;;;25.30;99.90;;;;;;26145525;22;20191;-70
2022/08/25 05:47:16;;;;;;;0.20;0.00;;;25.30;99.90;;;;;;26173053;22;20147;-70
2022/08/25 05:57:19;;;;;;;0.20;0.10;;;25.50;99.90;;;;;;26171273;22;20195;-68
2022/08/25 06:07:25;;;;;;;0.20;0.00;;;25.70;99.90;;;;;;26172413;22;20188;-67
2022/08/25 06:17:29;;;;;;;0.20;0.00;;;25.80;99.90;;;;;;26143317;22;20187;-70
2022/08/25 06:27:35;;;;;;;0.20;0.00;;;25.90;99.90;;;;;;26143628;22;20167;-69
2022/08/25 06:37:40;;;;;;;0.20;0.00;;;26.10;99.90;;;;;;26170891;22;20194;-70
2022/08/25 06:47:45;;;;;;;0.20;0.00;;;26.10;99.90;;;;;;26167899;22;20165;-68
2022/08/25 06:57:52;;;;;;;0.20;0.00;;;26.40;99.90;;;;;;26166871;22;20203;-69
2022/08/25 07:07:58;;;;;;;0.20;0.00;;;26.60;99.90;;;;;;26166954;22;20258;-68
2022/08/25 07:18:02;;;;;;;0.20;0.00;;;27.10;99.90;;;;;;26140407;22;20179;-69
2022/08/25 07:28:09;;;;;;;0.20;0.00;;;27.30;99.90;;;;;;26167562;22;20167;-70
2022/08/25 07:38:13;;;;;;;0.20;0.00;;;27.60;99.90;;;;;;26164727;22;20187;-67
2022/08/25 07:48:24;;;;;;;0.20;0.00;;;27.90;99.90;;;;;;26171840;22;20174;-68
2022/08/25 07:58:28;;;;;;;0.20;0.00;;;28.00;99.90;;;;;;26174998;22;20206;-68
2022/08/25 08:08:33;;;;;;;0.20;0.08;;;28.00;99.90;;;;;;26172301;22;20184;-69
2022/08/25 08:18:38;;;;;;;0.20;0.00;;;28.30;99.90;;;;;;26144530;22;20217;-69
2022/08/25 08:28:43;;;;;;;0.20;0.00;;;28.30;99.90;;;;;;26147710;22;20174;-69
2022/08/25 08:38:54;;;;;;;0.20;0.00;;;28.20;99.90;;;;;;26173160;22;20182;-69
2022/08/25 08:49:06;;;;;;;0.20;0.00;;;28.10;99.90;;;;;;26172472;22;20170;-68
2022/08/25 08:59:17;;;;;;;0.20;0.00;;;28.40;99.90;;;;;;26171710;22;20209;-67
2022/08/25 09:09:27;;;;;;;0.20;0.00;;;28.60;99.90;;;;;;26171826;22;20187;-68
2022/08/25 09:19:59;;;;;;;0.20;0.00;;;28.60;99.90;;;;;;26145087;22;20195;-70
2022/08/25 09:30:08;;;;;;;0.20;0.00;;;28.70;99.90;;;;;;26168507;22;20172;-69
2022/08/25 09:40:12;;;;;;;0.20;0.00;;;28.70;99.90;;;;;;26169626;22;20180;-69
2022/08/25 09:50:19;;;;;;;0.20;0.00;;;28.60;99.90;;;;;;26170228;22;20214;-68
2022/08/25 10:00:26;;;;;;;0.20;0.00;;;29.00;99.90;;;;;;26170423;22;20267;-69
2022/08/25 10:10:37;;;;;;;0.20;0.03;;;29.20;99.90;;;;;;26166931;22;20187;-69
2022/08/25 10:20:45;;;;;;;0.20;0.00;;;29.30;99.90;;;;;;26167131;22;20189;-69
2022/08/25 10:30:59;;;;;;;0.20;0.00;;;29.10;99.90;;;;;;26167465;22;20163;-68
2022/08/25 10:41:15;;;;;;;0.20;0.00;;;29.30;99.90;;;;;;26164311;22;20198;-69
2022/08/25 10:51:40;;;;;;;0.20;0.00;;;29.80;99.90;;;;;;26137440;22;20178;-69
2022/08/25 11:01:59;;;;;;;0.20;0.00;;;30.10;99.90;;;;;;26165414;22;20255;-69
2022/08/25 11:12:09;;;;;;;0.20;0.00;;;30.40;99.90;;;;;;26164784;22;20198;-69
2022/08/25 11:22:21;;;;;;;0.20;0.00;;;31.20;99.90;;;;;;26163959;22;20178;-69
2022/08/25 11:32:26;;;;;;;0.20;0.00;;;31.00;99.90;;;;;;26137992;22;20174;-68
2022/08/25 11:42:42;;;;;;;0.20;0.00;;;31.30;99.90;;;;;;26166384;22;20555;-71
2022/08/25 11:52:55;;;;;;;0.20;0.00;;;31.90;99.90;;;;;;26164244;22;20214;-71
2022/08/25 12:02:59;;;;;;;0.20;0.00;;;32.30;99.90;;;;;;26136351;22;20190;-70
2022/08/25 12:13:26;;;;;;;0.20;0.00;;;32.30;99.90;;;;;;26165105;22;20948;-70
2022/08/25 12:23:34;;;;;;;0.20;0.00;;;32.80;99.90;;;;;;26165465;22;20182;-70
2022/08/25 12:33:49;;;;;;;0.20;0.00;;;32.70;99.90;;;;;;26169041;22;20198;-70
2022/08/25 12:44:01;;;;;;;0.20;0.00;;;32.40;99.90;;;;;;26173729;22;20167;-69
2022/08/25 12:54:20;;;;;;;0.20;0.00;;;32.40;99.90;;;;;;26144688;22;20198;-70
2022/08/25 13:04:58;;;;;;;0.20;0.00;;;31.60;99.90;;;;;;26142333;22;20183;-71
2022/08/25 13:15:05;;;;;;;0.20;0.10;;;32.80;99.90;;;;;;26169918;22;20194;-70
2022/08/25 13:25:16;;;;;;;0.20;0.00;;;32.20;99.90;;;;;;26171142;22;20159;-69
2022/08/25 13:35:27;;;;;;;0.20;0.00;;;33.10;99.90;;;;;;26170722;22;20195;-69
2022/08/25 13:45:42;;;;;;;0.20;0.00;;;32.60;99.90;;;;;;26169835;22;20163;-69
2022/08/25 13:55:51;;;;;;;0.20;0.00;;;32.60;99.90;;;;;;26143807;22;20325;-68
2022/08/25 14:06:06;;;;;;;0.20;0.00;;;32.40;99.90;;;;;;26140814;22;20722;-71
2022/08/25 14:16:15;;;;;;;0.20;0.00;;;31.60;99.90;;;;;;26140402;22;20218;-69
2022/08/25 14:26:20;;;;;;;0.20;0.00;;;33.70;99.90;;;;;;26142938;22;20152;-71
2022/08/25 14:36:25;;;;;;;0.20;0.00;;;34.60;99.90;;;;;;26169695;22;20191;-70
2022/08/25 14:46:35;;;;;;;0.20;0.00;;;31.40;99.90;;;;;;26137896;22;20171;-70
2022/08/25 14:56:40;;;;;;;0.20;0.00;;;30.10;99.90;;;;;;26168352;22;20203;-70
2022/08/25 15:06:46;;;;;;;0.20;0.00;;;30.10;99.90;;;;;;26168845;22;20191;-69
2022/08/25 15:16:54;;;;;;;0.43;0.43;;;32.70;99.90;;;;;;26168431;22;20199;-69
2022/08/25 15:27:00;;;;;;;0.20;0.00;;;34.60;99.90;;;;;;26167519;22;20175;-69
2022/08/25 15:37:10;;;;;;;0.20;0.00;;;34.40;99.90;;;;;;26166295;22;20221;-71
2022/08/25 15:47:14;;;;;;;0.20;0.00;;;33.10;99.90;;;;;;26166633;22;20261;-71
2022/08/25 15:57:21;;;;;;;0.20;0.00;;;31.00;99.90;;;;;;26164488;22;20187;-68
2022/08/25 16:07:27;;;;;;;0.20;0.00;;;30.40;99.90;;;;;;26167493;22;20202;-68
2022/08/25 16:17:33;;;;;;;0.20;0.00;;;29.80;99.90;;;;;;26173954;22;20183;-68
2022/08/25 16:27:38;;;;;;;0.20;0.00;;;29.70;99.90;;;;;;26171570;22;20156;-68
2022/08/25 16:37:43;;;;;;;0.20;0.00;;;29.40;99.90;;;;;;26166121;22;20191;-69
2022/08/25 16:47:51;;;;;;;0.20;0.00;;;29.00;99.90;;;;;;26138977;22;20177;-71
2022/08/25 16:57:56;;;;;;;0.20;0.00;;;28.60;99.90;;;;;;26172736;22;20222;-71
2022/08/25 17:18:38;;;;;;;0.20;0.00;;;28.20;99.90;;;;;;25849776;22;20230;-69
2022/08/25 17:28:42;;;;;;;0.20;0.00;;;28.00;99.90;;;;;;26141810;22;20170;-74
2022/08/25 17:38:47;;;;;;;0.20;0.05;;;27.80;99.90;;;;;;26144694;22;20198;-69
2022/08/25 17:48:51;;;;;;;0.20;0.00;;;27.80;99.90;;;;;;26145890;22;20164;-68
2022/08/25 17:58:57;;;;;;;0.20;0.00;;;27.70;99.90;;;;;;26138247;22;20207;-68
2022/08/25 18:09:02;;;;;;;0.20;0.00;;;27.70;99.90;;;;;;26143447;22;20187;-68
2022/08/25 18:19:09;;;;;;;0.20;0.00;;;27.70;99.90;;;;;;26168954;22;20189;-69
2022/08/25 18:29:13;;;;;;;0.20;0.00;;;27.90;99.90;;;;;;26140637;22;20190;-68
2022/08/25 18:49:41;;;;;;;0.20;0.00;;;27.40;99.90;;;;;;26132956;22;20167;-69
2022/08/25 18:59:47;;;;;;;0.20;0.00;;;27.50;99.90;;;;;;26163054;22;20206;-68
2022/08/25 19:09:54;;;;;;;0.20;0.00;;;27.00;99.90;;;;;;26163972;22;20256;-69
2022/08/25 19:19:59;;;;;;;0.20;0.00;;;27.20;99.90;;;;;;26162966;22;20175;-71
2022/08/25 19:30:06;;;;;;;0.20;0.10;;;27.20;99.90;;;;;;26165271;22;20170;-70
2022/08/25 19:40:11;;;;;;;0.20;0.10;;;26.80;99.90;;;;;;26161959;22;20191;-71
2022/08/25 19:50:21;;;;;;;0.20;0.10;;;26.40;99.90;;;;;;26160861;22;20162;-71
2022/08/25 20:00:30;;;;;;;0.20;0.00;;;25.90;99.90;;;;;;26168605;22;20194;-71
2022/08/25 20:10:34;;;;;;;0.20;0.10;;;25.60;99.90;;;;;;26168424;22;20188;-71
2022/08/25 20:20:45;;;;;;;0.20;0.00;;;25.30;99.90;;;;;;26142372;22;20187;-71
2022/08/25 20:30:51;;;;;;;0.20;0.00;;;24.90;99.90;;;;;;26142507;22;20152;-70
2022/08/25 20:40:56;;;;;;;0.20;0.00;;;24.20;99.90;;;;;;26165066;22;20207;-71
2022/08/25 20:51:03;;;;;;;0.20;0.08;;;23.60;99.90;;;;;;26169210;22;20164;-70
2022/08/25 21:01:10;;;;;;;0.20;0.00;;;23.30;99.90;;;;;;26149950;22;20262;-70
2022/08/25 21:11:16;;;;;;;0.20;0.00;;;23.00;99.90;;;;;;26176216;22;20183;-70
2022/08/25 21:21:22;;;;;;;0.20;0.00;;;22.70;99.90;;;;;;26176031;22;20183;-71
2022/08/25 21:31:29;;;;;;;0.20;0.00;;;22.40;99.90;;;;;;26149125;22;20175;-71
2022/08/25 21:41:36;;;;;;;0.20;0.00;;;22.40;99.90;;;;;;26124838;22;20198;-71
2022/08/25 21:51:43;;;;;;;0.20;0.00;;;22.30;99.90;;;;;;26173638;22;20179;-70
2022/08/25 22:01:51;;;;;;;0.20;0.00;;;22.20;99.90;;;;;;26148668;22;20213;-71
2022/08/25 22:11:55;;;;;;;0.20;0.00;;;22.10;99.90;;;;;;26146293;22;20194;-70
2022/08/25 22:22:01;;;;;;;0.20;0.00;;;22.10;99.90;;;;;;26144722;22;20183;-70
2022/08/25 22:32:05;;;;;;;0.20;0.00;;;22.30;99.90;;;;;;26173476;22;20158;-71
2022/08/25 22:42:11;;;;;;;0.20;0.00;;;22.50;99.90;;;;;;26170977;22;20191;-69
2022/08/25 22:52:15;;;;;;;0.20;0.00;;;22.90;99.90;;;;;;26174002;22;20166;-74
2022/08/25 23:02:20;;;;;;;0.20;0.00;;;23.10;99.90;;;;;;26145914;22;20213;-70
2022/08/25 23:12:24;;;;;;;0.20;0.00;;;23.30;99.90;;;;;;26144954;22;20211;-71
2022/08/25 23:22:29;;;;;;;0.20;0.00;;;23.70;99.90;;;;;;26142546;22;20183;-70
2022/08/25 23:32:33;;;;;;;0.20;0.00;;;23.70;99.90;;;;;;26172116;22;20156;-71
2022/08/25 23:42:38;;;;;;;0.20;0.00;;;23.60;99.90;;;;;;26170850;22;20198;-71
2022/08/25 23:52:44;;;;;;;0.20;0.00;;;23.90;99.90;;;;;;26170219;22;20166;-71
